Time;durP1;ratioP1;P1;durP2;ratioP2;P2;SDS_P1;SDS_P2;PMS_P1;PMS_P2;Temp;Humidity;BMP_temperature;BMP_pressure;BME280_temperature;BME280_humidity;BME280_pressure;Samples;Min_cycle;Max_cycle;Signal;HPM_P1;HPM_P2
2022/03/01 00:02:22;;;;;;;4.95;3.38;;;;;;;4.62;60.41;102862.00;5034523;27;97524;-35
2022/03/01 00:04:48;;;;;;;9.07;3.60;;;;;;;4.53;59.89;102846.84;5053683;27;96787;-35
2022/03/01 00:07:13;;;;;;;7.40;4.65;;;;;;;4.57;60.10;102845.91;5052107;27;121706;-35
2022/03/01 00:09:38;;;;;;;6.20;3.92;;;;;;;4.62;60.37;102862.00;5052238;27;126406;-34
2022/03/01 00:12:04;;;;;;;5.97;3.55;;;;;;;4.55;60.21;102860.22;5052560;27;116750;-34
2022/03/01 00:14:30;;;;;;;7.68;2.80;;;;;;;4.59;60.18;102862.00;5053352;27;96904;-35
2022/03/01 00:16:55;;;;;;;6.22;3.33;;;;;;;4.54;60.64;102870.09;5053309;27;97931;-34
2022/03/01 00:19:21;;;;;;;5.28;3.67;;;;;;;4.57;60.74;102870.06;5052587;27;126891;-35
2022/03/01 00:21:46;;;;;;;5.05;3.60;;;;;;;4.56;60.46;102865.59;5034730;27;96568;-35
2022/03/01 00:24:11;;;;;;;6.15;3.75;;;;;;;4.58;60.84;102871.88;5053337;27;96736;-35
2022/03/01 00:26:37;;;;;;;5.63;3.35;;;;;;;4.53;60.12;102868.31;5052733;27;97401;-35
2022/03/01 00:29:02;;;;;;;5.75;3.28;;;;;;;4.52;60.51;102877.25;5052794;27;109214;-35
2022/03/01 00:31:27;;;;;;;6.13;2.42;;;;;;;4.52;61.13;102862.94;5052556;27;113572;-34
2022/03/01 00:33:53;;;;;;;4.75;3.50;;;;;;;4.56;60.89;102872.78;5053113;27;96713;-34
2022/03/01 00:36:18;;;;;;;5.35;2.80;;;;;;;4.55;60.64;102871.84;5052053;27;126547;-34
2022/03/01 00:38:43;;;;;;;10.00;3.50;;;;;;;4.51;60.45;102854.00;5052141;27;97549;-35
2022/03/01 00:41:09;;;;;;;8.68;5.00;;;;;;;4.56;60.63;102864.72;5052747;27;96614;-35
2022/03/01 00:43:46;;;;;;;6.25;3.60;;;;;;;4.57;60.50;102864.69;5053367;27;96775;-34
2022/03/01 00:46:11;;;;;;;6.72;2.83;;;;;;;4.54;60.24;102861.16;5051720;27;126511;-34
2022/03/01 00:48:37;;;;;;;6.93;3.63;;;;;;;4.57;60.07;102866.50;5034377;27;99235;-35
2022/03/01 00:51:02;;;;;;;5.15;3.45;;;;;;;4.57;60.37;102864.69;5051119;27;122747;-35
2022/03/01 00:53:27;;;;;;;7.30;4.25;;;;;;;4.60;60.70;102866.47;5051812;27;121208;-34
2022/03/01 00:55:52;;;;;;;6.88;3.63;;;;;;;4.61;60.24;102874.53;5052516;27;99337;-35
2022/03/01 00:58:18;;;;;;;6.20;3.35;;;;;;;4.60;60.20;102875.44;5051599;27;126415;-34
2022/03/01 01:00:43;;;;;;;4.18;2.22;;;;;;;4.56;60.29;102862.03;5051747;27;121916;-34
2022/03/01 01:03:08;;;;;;;6.65;2.65;;;;;;;4.58;60.92;102873.66;5051633;27;121511;-34
2022/03/01 01:05:34;;;;;;;7.30;4.03;;;;;;;4.59;60.88;102868.28;5051715;27;99163;-35
2022/03/01 01:07:59;;;;;;;3.63;2.63;;;;;;;4.52;61.15;102857.56;5052974;27;97376;-34
2022/03/01 01:10:25;;;;;;;7.45;4.00;;;;;;;4.60;61.15;102867.38;5052654;27;96448;-34
2022/03/01 01:12:50;;;;;;;4.22;2.70;;;;;;;4.58;61.18;102857.56;5034265;27;96885;-34
2022/03/01 01:15:18;;;;;;;3.35;2.53;;;;;;;4.50;62.15;102846.84;5051978;27;97931;-34
2022/03/01 01:17:43;;;;;;;5.25;3.22;;;;;;;4.59;61.11;102864.69;5033840;27;100786;-35
2022/03/01 01:20:10;;;;;;;5.13;3.53;;;;;;;4.59;60.72;102864.69;5052829;27;96559;-34
2022/03/01 01:22:41;;;;;;;5.07;3.00;;;;;;;4.56;61.70;102868.28;5034058;27;96842;-34
2022/03/01 01:25:13;;;;;;;4.30;2.53;;;;;;;4.51;61.57;102854.00;5052123;27;99444;-35
2022/03/01 01:27:42;;;;;;;8.63;4.22;;;;;;;4.59;62.04;102876.31;5033559;27;100541;-34
2022/03/01 01:30:10;;;;;;;4.80;3.03;;;;;;;4.50;61.35;102854.00;5033877;27;96740;-35
2022/03/01 01:32:36;;;;;;;9.52;3.70;;;;;;;4.53;61.92;102862.94;5034295;27;96671;-34
2022/03/01 01:35:02;;;;;;;7.35;3.47;;;;;;;4.55;61.73;102866.47;5033612;27;99957;-35
2022/03/01 01:37:27;;;;;;;4.80;3.63;;;;;;;4.53;60.95;102859.34;5033749;27;100824;-35
2022/03/01 01:39:52;;;;;;;5.95;2.95;;;;;;;4.50;61.30;102849.50;5050837;27;122762;-35
2022/03/01 01:42:18;;;;;;;7.20;3.15;;;;;;;4.53;61.98;102857.56;5051761;27;96794;-34
2022/03/01 01:44:44;;;;;;;6.40;3.83;;;;;;;4.54;62.54;102855.78;5052296;27;97307;-35
2022/03/01 01:47:09;;;;;;;9.07;3.42;;;;;;;4.54;61.89;102858.47;5033538;27;100742;-35
2022/03/01 01:49:35;;;;;;;5.70;3.13;;;;;;;4.45;61.67;102845.97;5052889;27;96657;-35
2022/03/01 01:52:01;;;;;;;8.23;3.15;;;;;;;4.49;61.59;102849.53;5055819;27;96824;-35
2022/03/01 01:54:26;;;;;;;3.53;2.45;;;;;;;4.51;61.64;102851.31;5055559;27;97975;-34
2022/03/01 01:56:51;;;;;;;7.28;3.10;;;;;;;4.47;62.08;102852.22;5055397;27;111421;-35
2022/03/01 01:59:17;;;;;;;5.65;3.42;;;;;;;4.46;61.67;102839.72;5036411;27;118376;-34
2022/03/01 02:01:42;;;;;;;6.63;3.22;;;;;;;4.48;61.59;102845.94;5055388;27;96875;-34
2022/03/01 02:04:07;;;;;;;8.65;4.22;;;;;;;4.47;61.73;102841.50;5054772;27;97818;-34
2022/03/01 02:06:37;;;;;;;4.03;2.72;;;;;;;4.44;61.47;102834.34;5054938;27;97787;-35
2022/03/01 02:09:02;;;;;;;7.30;3.15;;;;;;;4.48;61.63;102840.56;5036975;27;96695;-34
2022/03/01 02:11:28;;;;;;;5.68;3.20;;;;;;;4.44;62.00;102833.47;5036919;27;96652;-35
2022/03/01 02:13:53;;;;;;;5.75;4.05;;;;;;;4.48;61.78;102843.25;5054701;27;121221;-35
2022/03/01 02:16:18;;;;;;;4.38;2.83;;;;;;;4.47;61.40;102841.50;5054094;27;125715;-34
2022/03/01 02:18:44;;;;;;;4.47;2.78;;;;;;;4.41;62.13;102830.75;5054850;27;100912;-35
2022/03/01 02:21:09;;;;;;;3.38;2.45;;;;;;;4.43;61.52;102832.56;5055689;27;96750;-34
2022/03/01 02:23:35;;;;;;;3.90;2.78;;;;;;;4.44;61.99;102831.66;5055005;27;97956;-35
2022/03/01 02:26:00;;;;;;;7.68;3.90;;;;;;;4.42;61.78;102830.78;5055121;27;97882;-35
2022/03/01 02:28:25;;;;;;;7.22;4.32;;;;;;;4.50;61.26;102841.47;5053815;27;118665;-35
2022/03/01 02:30:51;;;;;;;7.50;3.72;;;;;;;4.44;61.18;102826.28;5054158;27;122087;-35
2022/03/01 02:33:16;;;;;;;5.45;3.97;;;;;;;4.38;62.42;102817.38;5054576;27;100117;-34
2022/03/01 02:35:41;;;;;;;4.97;2.92;;;;;;;4.43;61.85;102826.28;5055266;27;97254;-35
2022/03/01 02:38:07;;;;;;;5.50;2.78;;;;;;;4.35;61.52;102817.38;5055054;27;96665;-35
2022/03/01 02:40:32;;;;;;;5.28;3.50;;;;;;;4.37;61.39;102818.28;5055067;27;96778;-35
2022/03/01 02:42:57;;;;;;;5.95;3.97;;;;;;;4.40;61.95;102829.88;5054743;27;97913;-34
2022/03/01 02:45:23;;;;;;;5.88;3.78;;;;;;;4.38;61.49;102830.78;5054150;27;126491;-35
2022/03/01 02:47:48;;;;;;;5.07;3.80;;;;;;;4.38;61.59;102836.16;5054856;27;96557;-35
2022/03/01 02:50:16;;;;;;;6.55;4.35;;;;;;;4.37;61.67;102829.91;5054807;27;96875;-34
2022/03/01 02:52:41;;;;;;;6.22;3.78;;;;;;;4.30;61.62;102816.53;5054000;27;99339;-34
2022/03/01 02:55:07;;;;;;;10.10;4.47;;;;;;;4.32;61.70;102833.50;5054301;27;101910;-34
2022/03/01 02:57:32;;;;;;;6.75;3.92;;;;;;;4.28;62.22;102816.50;5036238;27;97196;-34
2022/03/01 02:59:58;;;;;;;5.55;2.97;;;;;;;4.23;62.24;102819.22;5053842;27;117944;-34
2022/03/01 03:02:23;;;;;;;5.07;3.22;;;;;;;4.27;62.38;102825.47;5052899;27;110974;-35
2022/03/01 03:04:49;;;;;;;7.30;3.83;;;;;;;4.28;62.13;102834.41;5054436;27;97410;-34
2022/03/01 03:07:14;;;;;;;10.82;3.47;;;;;;;4.22;62.52;102817.44;5054252;27;98100;-34
2022/03/01 03:09:40;;;;;;;5.57;3.50;;;;;;;4.25;61.99;102825.47;5054913;27;96857;-34
2022/03/01 03:12:06;;;;;;;8.60;4.35;;;;;;;4.22;62.28;102824.59;5054279;27;97956;-35
2022/03/01 03:14:31;;;;;;;5.20;3.13;;;;;;;4.22;62.46;102830.84;5035721;27;100808;-34
2022/03/01 03:16:57;;;;;;;7.75;3.78;;;;;;;4.18;62.18;102828.19;5053754;27;96703;-35
2022/03/01 03:19:28;;;;;;;5.07;2.97;;;;;;;4.23;62.03;102842.47;5054463;27;96742;-35
2022/03/01 03:21:53;;;;;;;4.70;3.07;;;;;;;4.18;62.25;102839.78;5053391;27;111056;-34
2022/03/01 03:24:19;;;;;;;4.72;3.35;;;;;;;4.18;62.27;102833.53;5053402;27;121343;-35
2022/03/01 03:26:45;;;;;;;6.90;3.65;;;;;;;4.19;61.92;102832.63;5054294;27;96530;-34
2022/03/01 03:29:12;;;;;;;6.15;3.63;;;;;;;4.17;61.51;102838.03;5035735;27;96850;-34
2022/03/01 03:31:39;;;;;;;5.70;3.47;;;;;;;4.08;62.00;102830.00;5035481;27;100882;-35
2022/03/01 03:34:08;;;;;;;3.67;1.85;;;;;;;4.06;61.59;102823.75;5036080;27;101023;-35
2022/03/01 03:36:45;;;;;;;7.65;3.90;;;;;;;4.15;61.12;102836.25;5053785;27;96520;-34
2022/03/01 03:39:11;;;;;;;5.35;3.17;;;;;;;4.12;61.33;102821.03;5053090;27;121443;-34
2022/03/01 03:41:38;;;;;;;2.40;1.45;;;;;;;4.21;61.30;102839.78;5034965;27;101179;-34
2022/03/01 03:44:04;;;;;;;10.00;3.15;;;;;;;4.25;60.67;102830.84;5035032;27;100918;-34
2022/03/01 03:46:29;;;;;;;4.05;2.75;;;;;;;4.19;60.45;102813.84;5053992;27;96531;-34
2022/03/01 03:48:54;;;;;;;5.55;3.10;;;;;;;4.23;60.67;102812.97;5053907;27;96807;-34
2022/03/01 03:51:20;;;;;;;5.30;3.40;;;;;;;4.27;60.92;102828.16;5053415;27;99055;-34
2022/03/01 03:53:47;;;;;;;6.53;3.30;;;;;;;4.29;61.05;102823.69;5053556;27;99299;-34
2022/03/01 03:56:12;;;;;;;4.63;2.90;;;;;;;4.32;60.49;102820.97;5035299;27;98381;-34
2022/03/01 03:58:37;;;;;;;3.17;1.98;;;;;;;4.31;60.84;102818.28;5053955;27;96763;-34
2022/03/01 04:01:03;;;;;;;4.32;3.42;;;;;;;4.24;61.17;102804.00;5052961;27;108191;-34
2022/03/01 04:03:29;;;;;;;4.00;3.00;;;;;;;4.26;60.83;102810.25;5053289;27;99417;-34
2022/03/01 04:05:54;;;;;;;8.40;4.65;;;;;;;4.31;60.85;102812.94;5052730;27;96737;-33
2022/03/01 04:08:20;;;;;;;8.60;4.10;;;;;;;4.31;60.82;102819.19;5053336;27;96875;-34
2022/03/01 04:10:45;;;;;;;5.55;2.78;;;;;;;4.31;60.54;102812.94;5052462;27;126843;-34
2022/03/01 04:13:11;;;;;;;5.43;3.67;;;;;;;4.31;60.55;102812.94;5052472;27;123354;-34
2022/03/01 04:15:37;;;;;;;3.60;2.22;;;;;;;4.24;60.81;102791.50;5053248;27;96442;-34
2022/03/01 04:18:04;;;;;;;7.00;3.70;;;;;;;4.32;60.69;102794.16;5053252;27;97278;-34
2022/03/01 04:20:29;;;;;;;10.63;4.22;;;;;;;4.36;60.72;102795.00;5034795;27;100933;-34
2022/03/01 04:22:55;;;;;;;5.03;3.00;;;;;;;4.42;60.91;102811.09;5035072;27;101274;-34
2022/03/01 04:25:20;;;;;;;14.70;3.40;;;;;;;4.40;61.02;102804.84;5053269;27;96622;-34
2022/03/01 04:27:45;;;;;;;7.70;3.55;;;;;;;4.42;61.03;102801.25;5052713;27;100015;-34
2022/03/01 04:30:12;;;;;;;6.38;3.42;;;;;;;4.34;60.73;102792.38;5052760;27;98469;-34
2022/03/01 04:32:39;;;;;;;7.38;2.85;;;;;;;4.37;60.83;102792.34;5034786;27;100826;-34
2022/03/01 04:35:05;;;;;;;8.77;3.65;;;;;;;4.36;60.72;102798.63;5034672;27;96605;-34
2022/03/01 04:37:31;;;;;;;7.60;4.28;;;;;;;4.37;60.91;102804.88;5053093;27;96860;-34
2022/03/01 04:39:56;;;;;;;5.85;3.00;;;;;;;4.44;60.85;102810.19;5052733;27;99868;-34
2022/03/01 04:42:22;;;;;;;3.83;2.22;;;;;;;4.44;60.52;102802.16;5052536;27;97457;-35
2022/03/01 04:44:47;;;;;;;8.95;3.83;;;;;;;4.41;60.78;102795.88;5053011;27;96503;-35
2022/03/01 04:47:14;;;;;;;4.07;2.78;;;;;;;4.46;60.75;102802.16;5052598;27;116728;-34
2022/03/01 04:49:40;;;;;;;6.60;2.83;;;;;;;4.42;60.80;102781.59;5052710;27;98028;-34
2022/03/01 04:52:05;;;;;;;7.88;2.58;;;;;;;4.50;60.92;102806.56;5052748;27;98025;-34
2022/03/01 04:54:31;;;;;;;6.68;3.92;;;;;;;4.44;60.98;102785.16;5052183;27;96450;-35
2022/03/01 04:56:56;;;;;;;5.72;3.03;;;;;;;4.43;60.55;102784.28;5052684;27;96663;-34
2022/03/01 04:59:21;;;;;;;7.78;2.72;;;;;;;4.46;60.96;102794.09;5052337;27;112244;-34
2022/03/01 05:01:47;;;;;;;5.88;2.58;;;;;;;4.49;60.34;102796.75;5052365;27;97783;-35
2022/03/01 05:04:12;;;;;;;5.55;2.80;;;;;;;4.51;60.62;102794.97;5052252;27;104124;-35
2022/03/01 05:06:37;;;;;;;4.07;2.13;;;;;;;4.49;60.41;102790.50;5038039;27;106284;-35
2022/03/01 05:09:03;;;;;;;6.30;3.92;;;;;;;4.50;60.81;102784.22;5031617;28;116737;-34
2022/03/01 05:11:28;;;;;;;2.95;1.88;;;;;;;4.54;60.38;102788.69;5032386;28;97859;-34
2022/03/01 05:13:53;;;;;;;3.60;2.42;;;;;;;4.54;60.70;102786.88;5031762;28;99705;-34
2022/03/01 05:16:19;;;;;;;4.53;2.40;;;;;;;4.59;60.64;102782.38;5031897;28;108437;-35
2022/03/01 05:18:44;;;;;;;4.65;2.70;;;;;;;4.53;60.71;102771.69;5031239;28;99336;-34
2022/03/01 05:21:09;;;;;;;5.50;2.42;;;;;;;4.54;60.32;102778.84;5031620;28;117899;-35
2022/03/01 05:23:35;;;;;;;3.47;2.63;;;;;;;4.57;60.59;102784.19;5032314;27;96473;-34
2022/03/01 05:26:00;;;;;;;6.15;2.83;;;;;;;4.62;60.42;102782.41;5037372;28;118080;-35
2022/03/01 05:28:25;;;;;;;3.75;2.65;;;;;;;4.58;60.17;102782.41;5037594;27;123027;-34
2022/03/01 05:30:51;;;;;;;4.75;2.33;;;;;;;4.56;60.17;102776.16;5038362;28;99021;-34
2022/03/01 05:33:16;;;;;;;6.35;2.80;;;;;;;4.57;60.46;102777.94;5039062;28;96564;-34
2022/03/01 05:35:42;;;;;;;8.07;3.53;;;;;;;4.62;60.33;102793.13;5020610;28;96806;-34
2022/03/01 05:38:09;;;;;;;6.47;2.85;;;;;;;4.63;60.32;102785.97;5038454;28;98848;-34
2022/03/01 05:40:36;;;;;;;5.00;3.05;;;;;;;4.68;60.51;102795.75;5020354;28;100915;-35
2022/03/01 05:43:02;;;;;;;8.70;3.50;;;;;;;4.66;60.27;102789.50;5019670;28;97432;-34
2022/03/01 05:45:27;;;;;;;10.00;3.78;;;;;;;4.65;60.49;102789.53;5020310;28;96848;-35
2022/03/01 05:47:54;;;;;;;5.45;3.22;;;;;;;4.64;60.09;102783.25;5038130;28;99879;-34
2022/03/01 05:50:20;;;;;;;4.88;3.00;;;;;;;4.61;60.24;102783.28;5020188;28;101360;-34
2022/03/01 05:52:46;;;;;;;3.55;2.03;;;;;;;4.63;60.87;102773.44;5020279;28;96492;-34
2022/03/01 05:55:12;;;;;;;4.65;2.33;;;;;;;4.63;60.92;102783.28;5019963;28;96866;-34
2022/03/01 05:57:38;;;;;;;7.28;2.92;;;;;;;4.64;60.83;102788.63;5020029;28;100503;-34
2022/03/01 06:00:06;;;;;;;3.78;2.42;;;;;;;4.66;60.94;102800.25;5020376;28;101425;-34
2022/03/01 06:02:32;;;;;;;5.70;3.30;;;;;;;4.60;60.98;102783.28;5038006;28;96587;-34
2022/03/01 06:04:57;;;;;;;6.18;3.05;;;;;;;4.67;60.70;102785.94;5038434;28;96863;-35
2022/03/01 06:07:23;;;;;;;3.72;2.42;;;;;;;4.65;60.77;102784.16;5057293;27;99471;-34
2022/03/01 06:09:48;;;;;;;6.60;2.58;;;;;;;4.69;60.66;102788.59;5039633;27;121370;-35
2022/03/01 06:12:13;;;;;;;7.78;2.78;;;;;;;4.64;60.36;102785.94;5057580;27;121870;-35
2022/03/01 06:14:38;;;;;;;5.70;3.03;;;;;;;4.68;60.53;102787.72;5058595;27;96781;-34
2022/03/01 06:17:05;;;;;;;3.83;2.22;;;;;;;4.68;60.72;102790.38;5058135;27;98894;-34
2022/03/01 06:19:30;;;;;;;6.43;3.00;;;;;;;4.70;60.44;102786.81;5058236;27;99147;-35
2022/03/01 06:22:06;;;;;;;6.43;3.50;;;;;;;4.73;60.31;102790.38;5039380;27;110511;-34
2022/03/01 06:24:32;;;;;;;5.50;2.47;;;;;;;4.71;60.43;102786.78;5040260;27;96918;-35
2022/03/01 06:26:58;;;;;;;7.07;4.03;;;;;;;4.70;60.40;102776.09;5039940;27;100882;-34
2022/03/01 06:29:24;;;;;;;3.55;2.00;;;;;;;4.70;60.72;102773.41;5039607;27;101047;-35
2022/03/01 06:31:49;;;;;;;6.10;3.33;;;;;;;4.76;60.59;102779.59;5058030;27;96569;-35
2022/03/01 06:34:15;;;;;;;6.88;3.53;;;;;;;4.72;60.46;102777.84;5058258;27;96806;-34
2022/03/01 06:36:40;;;;;;;3.50;2.67;;;;;;;4.68;60.50;102773.41;5054745;27;97863;-34
2022/03/01 06:39:06;;;;;;;4.35;2.42;;;;;;;4.72;60.45;102785.00;5054715;27;97788;-35
2022/03/01 06:41:31;;;;;;;7.03;3.47;;;;;;;4.72;60.59;102796.66;5054754;27;96515;-35
2022/03/01 06:43:56;;;;;;;8.73;3.80;;;;;;;4.67;60.58;102790.38;5053715;27;121393;-34
2022/03/01 06:46:21;;;;;;;4.43;2.65;;;;;;;4.78;60.88;102809.13;5036385;27;99456;-34
2022/03/01 06:48:47;;;;;;;10.73;2.63;;;;;;;4.77;60.91;102812.72;5055097;27;97754;-34
2022/03/01 06:51:13;;;;;;;5.32;2.95;;;;;;;4.80;60.58;102823.44;5054652;27;96589;-34
2022/03/01 06:53:39;;;;;;;4.97;2.70;;;;;;;4.80;60.87;102813.59;5054252;27;96843;-34
2022/03/01 06:56:05;;;;;;;5.10;2.85;;;;;;;4.84;60.47;102825.22;5035634;27;101107;-34
2022/03/01 06:58:30;;;;;;;3.80;1.95;;;;;;;4.84;60.21;102828.78;5054833;27;97238;-34
2022/03/01 07:00:56;;;;;;;2.75;2.05;;;;;;;4.85;60.53;102825.19;5054459;27;96858;-34
2022/03/01 07:03:22;;;;;;;5.70;2.70;;;;;;;4.81;60.28;102817.16;5054469;27;96810;-34
2022/03/01 07:05:48;;;;;;;4.63;2.20;;;;;;;4.76;60.36;102803.75;5035533;27;101181;-34
2022/03/01 07:08:13;;;;;;;4.40;3.03;;;;;;;4.80;60.15;102818.97;5054126;27;97413;-34
2022/03/01 07:10:41;;;;;;;8.82;2.83;;;;;;;4.78;60.40;102811.81;5054698;27;96572;-34
2022/03/01 07:13:07;;;;;;;5.78;3.55;;;;;;;4.75;59.99;102814.53;5036515;27;96809;-34
2022/03/01 07:15:33;;;;;;;2.85;2.25;;;;;;;4.75;60.10;102811.84;5035948;27;101000;-34
2022/03/01 07:17:59;;;;;;;4.43;2.92;;;;;;;4.85;60.32;102825.19;5035846;27;100701;-34
2022/03/01 07:20:25;;;;;;;6.68;3.67;;;;;;;4.84;60.12;102823.41;5035485;27;96523;-34
2022/03/01 07:22:50;;;;;;;6.95;3.60;;;;;;;4.89;60.33;102839.50;5054155;27;96766;-34
2022/03/01 07:25:15;;;;;;;6.15;3.10;;;;;;;4.84;60.08;102836.84;5035653;27;101024;-34
2022/03/01 07:27:52;;;;;;;4.18;2.65;;;;;;;4.87;60.61;102842.19;5053655;27;111265;-35
2022/03/01 07:30:19;;;;;;;6.25;3.38;;;;;;;4.92;60.20;102852.91;5054083;27;96598;-34
2022/03/01 07:32:46;;;;;;;8.35;3.97;;;;;;;4.90;60.30;102849.34;5035759;27;96724;-34
2022/03/01 07:35:11;;;;;;;3.20;2.22;;;;;;;4.87;60.25;102843.97;5053935;27;97791;-34
2022/03/01 07:37:37;;;;;;;2.63;1.95;;;;;;;4.87;60.70;102836.81;5054418;27;98656;-34
2022/03/01 07:40:08;;;;;;;10.27;2.97;;;;;;;4.85;60.70;102843.09;5035604;27;96517;-35
2022/03/01 07:42:34;;;;;;;6.13;2.95;;;;;;;4.90;60.25;102860.06;5035613;27;96833;-35
2022/03/01 07:44:59;;;;;;;4.88;2.53;;;;;;;4.88;60.28;102857.38;5053343;27;97359;-35
2022/03/01 07:47:24;;;;;;;5.10;2.75;;;;;;;4.93;60.12;102862.72;5053280;27;98651;-35
2022/03/01 07:49:50;;;;;;;7.20;2.42;;;;;;;4.89;60.04;102850.25;5053491;27;96460;-35
2022/03/01 07:52:15;;;;;;;8.43;2.78;;;;;;;4.97;60.19;102867.19;5053871;27;96768;-35
2022/03/01 07:54:41;;;;;;;7.40;3.13;;;;;;;4.96;59.78;102860.06;5053647;27;97461;-35
2022/03/01 07:57:06;;;;;;;5.70;2.58;;;;;;;4.98;59.86;102854.66;5053134;27;113355;-35
2022/03/01 07:59:31;;;;;;;6.45;2.95;;;;;;;5.02;60.08;102857.31;5053711;27;96471;-35
2022/03/01 08:01:57;;;;;;;8.02;3.45;;;;;;;5.10;60.04;102862.63;5052818;27;118445;-35
2022/03/01 08:04:22;;;;;;;5.35;2.40;;;;;;;5.11;59.75;102864.44;5052360;27;126710;-35
2022/03/01 08:06:49;;;;;;;6.88;3.10;;;;;;;5.13;59.93;102861.75;5052347;27;123194;-35
2022/03/01 08:09:14;;;;;;;4.15;2.75;;;;;;;5.16;60.06;102869.78;5034633;27;96780;-34
2022/03/01 08:11:39;;;;;;;3.40;2.40;;;;;;;5.16;59.97;102876.03;5053918;27;96771;-34
2022/03/01 08:14:05;;;;;;;10.52;2.90;;;;;;;5.14;59.92;102876.94;5052809;27;115787;-34
2022/03/01 08:16:30;;;;;;;5.57;2.47;;;;;;;5.14;59.85;102875.16;5053462;27;97331;-35
2022/03/01 08:18:55;;;;;;;12.75;3.33;;;;;;;5.15;59.66;102884.09;5052828;27;103854;-35
2022/03/01 08:21:21;;;;;;;4.82;3.03;;;;;;;5.16;60.04;102886.78;5053225;27;96836;-34
2022/03/01 08:23:46;;;;;;;4.45;2.65;;;;;;;5.18;60.40;102889.47;5052866;27;105944;-35
2022/03/01 08:26:11;;;;;;;4.22;2.60;;;;;;;5.17;60.10;102888.56;5053050;27;106486;-34
2022/03/01 08:28:36;;;;;;;4.30;2.83;;;;;;;5.15;59.77;102882.31;5052877;27;96674;-35
2022/03/01 08:31:02;;;;;;;4.57;2.78;;;;;;;5.08;59.86;102867.16;5053273;27;96774;-34
2022/03/01 08:33:33;;;;;;;9.15;2.58;;;;;;;5.13;60.32;102880.56;5052501;27;97868;-35
2022/03/01 08:36:01;;;;;;;5.47;3.33;;;;;;;5.10;60.02;102873.38;5053284;27;97196;-35
2022/03/01 08:38:26;;;;;;;5.80;4.13;;;;;;;5.14;59.97;102882.31;5034729;27;96810;-34
2022/03/01 08:40:52;;;;;;;4.53;2.97;;;;;;;5.18;60.48;102884.09;5053210;27;96733;-35
2022/03/01 08:43:18;;;;;;;6.30;2.97;;;;;;;5.13;60.01;102869.81;5034372;27;98878;-35
2022/03/01 08:45:44;;;;;;;4.90;2.78;;;;;;;5.18;60.16;102887.66;5052683;27;107536;-34
2022/03/01 08:48:10;;;;;;;9.57;5.15;;;;;;;5.20;60.13;102893.03;5052767;27;96838;-35
2022/03/01 08:50:35;;;;;;;5.43;2.67;;;;;;;5.22;60.50;102900.19;5053158;27;96760;-35
2022/03/01 08:53:02;;;;;;;5.70;3.22;;;;;;;5.26;59.91;102911.78;5052891;27;97927;-35
2022/03/01 08:55:28;;;;;;;6.07;2.97;;;;;;;5.27;60.67;102910.91;5034222;27;100791;-35
2022/03/01 08:57:53;;;;;;;7.13;3.28;;;;;;;5.27;60.28;102909.09;5052402;27;96516;-34
2022/03/01 09:00:19;;;;;;;6.38;3.20;;;;;;;5.25;59.71;102897.47;5051561;27;96918;-34
2022/03/01 09:02:45;;;;;;;5.47;2.65;;;;;;;5.25;59.87;102891.22;5052557;27;97434;-35
2022/03/01 09:05:10;;;;;;;3.72;2.90;;;;;;;5.30;59.63;102894.75;5051976;27;97786;-34
2022/03/01 09:07:37;;;;;;;7.05;3.05;;;;;;;5.30;59.88;102902.81;5034334;27;96484;-35
2022/03/01 09:10:04;;;;;;;6.90;3.55;;;;;;;5.32;59.77;102912.66;5034265;27;96898;-34
2022/03/01 09:12:30;;;;;;;5.32;2.83;;;;;;;5.37;60.23;102912.63;5034064;27;100711;-35
2022/03/01 09:14:55;;;;;;;5.25;3.00;;;;;;;5.37;60.56;102907.25;5034029;27;114021;-34
2022/03/01 09:17:21;;;;;;;10.07;3.60;;;;;;;5.36;60.18;102901.88;5052254;27;96591;-35
2022/03/01 09:19:46;;;;;;;5.00;3.45;;;;;;;5.35;60.22;102898.31;5052727;27;96734;-34
2022/03/01 09:22:12;;;;;;;6.80;3.70;;;;;;;5.44;60.63;102905.41;5051761;27;102428;-35
2022/03/01 09:24:39;;;;;;;7.60;3.92;;;;;;;5.46;59.84;102907.19;5050847;27;99475;-35
2022/03/01 09:27:05;;;;;;;9.07;4.13;;;;;;;5.41;60.56;102894.66;5033971;27;96616;-35
2022/03/01 09:29:30;;;;;;;6.18;3.33;;;;;;;5.45;60.10;102907.19;5051545;27;96835;-34
2022/03/01 09:31:56;;;;;;;4.78;2.72;;;;;;;5.44;60.49;102906.31;5052142;27;97735;-35
2022/03/01 09:34:22;;;;;;;8.20;3.53;;;;;;;5.52;60.56;102914.31;5033770;27;100978;-35
2022/03/01 09:36:47;;;;;;;4.40;2.58;;;;;;;5.54;61.22;102924.13;5034275;27;96493;-35
2022/03/01 09:39:12;;;;;;;15.30;3.97;;;;;;;5.51;61.29;102928.66;5052737;27;96724;-35
2022/03/01 09:41:38;;;;;;;8.05;2.97;;;;;;;5.59;62.04;102939.34;5051930;27;98716;-34
2022/03/01 09:44:04;;;;;;;10.32;3.58;;;;;;;5.56;62.39;102939.38;5052051;27;97339;-35
2022/03/01 09:46:29;;;;;;;4.70;3.33;;;;;;;5.57;62.17;102950.09;5051207;27;96703;-35
2022/03/01 09:48:55;;;;;;;6.78;3.58;;;;;;;5.54;63.56;102942.06;5050462;27;96747;-35
2022/03/01 09:51:21;;;;;;;9.48;3.92;;;;;;;5.56;62.74;102956.41;5051476;27;99632;-35
2022/03/01 09:53:47;;;;;;;8.23;4.70;;;;;;;5.50;62.88;102946.56;5033499;27;100937;-34
2022/03/01 09:56:14;;;;;;;7.40;3.70;;;;;;;5.59;62.82;102959.06;5052415;27;96516;-34
2022/03/01 09:58:40;;;;;;;7.35;3.60;;;;;;;5.60;62.75;102966.25;5033632;27;96653;-35
2022/03/01 10:01:06;;;;;;;7.43;4.30;;;;;;;5.64;63.55;102953.66;5033132;27;100966;-34
2022/03/01 10:03:36;;;;;;;5.55;3.25;;;;;;;5.56;63.87;102956.41;5051829;27;99467;-34
2022/03/01 10:06:09;;;;;;;7.05;3.50;;;;;;;5.63;63.91;102960.84;5033340;27;96745;-35
2022/03/01 10:08:35;;;;;;;8.23;3.47;;;;;;;5.63;63.99;102955.47;5033611;27;96828;-34
2022/03/01 10:11:00;;;;;;;7.65;3.67;;;;;;;5.65;63.84;102953.66;5052565;27;99407;-35
2022/03/01 10:13:29;;;;;;;6.57;3.55;;;;;;;5.64;63.92;102950.97;5055344;27;97798;-35
2022/03/01 10:16:15;;;;;;;6.75;3.53;;;;;;;5.62;64.90;102950.97;5037004;27;96983;-34
2022/03/01 10:18:50;;;;;;;10.27;4.18;;;;;;;5.68;64.67;102964.38;5037025;27;96834;-34
2022/03/01 10:21:16;;;;;;;11.60;4.22;;;;;;;5.68;64.87;102956.31;5036884;27;101151;-35
2022/03/01 10:23:49;;;;;;;6.57;2.88;;;;;;;5.61;63.60;102949.19;5036411;27;100942;-34
2022/03/01 10:26:18;;;;;;;5.55;3.63;;;;;;;5.60;64.75;102943.81;5036578;27;96778;-34
2022/03/01 10:28:44;;;;;;;6.57;3.58;;;;;;;5.56;64.94;102934.00;5037135;27;96807;-35
2022/03/01 10:31:13;;;;;;;6.47;3.58;;;;;;;5.57;66.68;102933.97;5036667;27;101115;-35
2022/03/01 10:33:56;;;;;;;9.20;4.63;;;;;;;5.63;66.31;102944.69;5036470;27;100744;-35
2022/03/01 10:36:28;;;;;;;7.07;3.25;;;;;;;5.64;66.74;102949.16;5054716;27;96534;-34
2022/03/01 10:39:16;;;;;;;5.83;3.40;;;;;;;5.62;66.18;102948.28;5036419;27;99265;-34
2022/03/01 10:41:45;;;;;;;7.43;3.17;;;;;;;5.60;65.57;102946.50;5054913;27;98070;-34
2022/03/01 10:44:16;;;;;;;6.97;3.38;;;;;;;5.63;65.98;102957.25;5036235;27;100924;-35
2022/03/01 10:46:44;;;;;;;10.10;4.95;;;;;;;5.64;65.82;102946.47;5036508;27;96774;-34
2022/03/01 10:49:12;;;;;;;8.25;3.95;;;;;;;5.64;66.50;102948.28;5019672;27;96859;-35
2022/03/01 10:51:50;;;;;;;7.38;3.80;;;;;;;5.57;66.22;102941.16;5036162;27;100901;-35
2022/03/01 10:54:35;;;;;;;8.00;3.60;;;;;;;5.65;66.77;102958.09;5036568;27;100847;-34
2022/03/01 10:57:05;;;;;;;5.63;2.72;;;;;;;5.54;66.15;102931.31;5054807;27;96646;-34
2022/03/01 10:59:33;;;;;;;7.50;3.45;;;;;;;5.57;66.32;102935.78;5054607;27;96657;-35
2022/03/01 11:01:59;;;;;;;7.88;4.13;;;;;;;5.63;65.46;102942.00;5035350;27;99153;-35
2022/03/01 11:04:25;;;;;;;9.35;2.50;;;;;;;5.65;67.92;102945.59;5035915;27;100785;-35
2022/03/01 11:06:56;;;;;;;9.38;4.60;;;;;;;5.56;67.36;102920.56;5035357;27;96745;-34
2022/03/01 11:09:29;;;;;;;11.02;4.72;;;;;;;5.58;67.66;102916.03;5036281;27;96830;-34
2022/03/01 11:11:55;;;;;;;5.72;4.25;;;;;;;5.63;67.79;102904.38;5036043;27;101007;-34
2022/03/01 11:15:06;;;;;;;17.33;4.85;;;;;;;5.79;67.07;102920.38;5035947;27;98751;-34
2022/03/01 11:17:47;;;;;;;7.22;4.35;;;;;;;5.88;70.68;102921.19;4971912;28;98037;-34
2022/03/01 11:20:22;;;;;;;9.52;4.78;;;;;;;5.99;67.11;102912.19;4955627;28;96757;-34
2022/03/01 11:23:03;;;;;;;16.30;5.80;;;;;;;6.19;69.95;102912.88;5008560;27;100700;-35
2022/03/01 11:25:36;;;;;;;9.27;3.55;;;;;;;6.30;69.09;102886.75;5035878;27;100542;-34
2022/03/01 11:28:05;;;;;;;10.82;5.10;;;;;;;6.74;69.31;102917.63;5035191;27;96797;-35